KDMA/DMA METAR and TAF weather

Enter ICAO airport designator
Station Type Date Time Source
KDMA METAR 2020/09/27 02:58 UTC NOAA

KDMA 270258Z AUTO 32005KT 10SM CLR 31/04 A2992 RMK AO2 SLP087 T03100039 53009 FZRANO $


Station Type Date Time Source
KDMA Decoded METAR 2020/09/27 02:58 UTC NOAA

Davis-Monthan Air Force Base, AZ, United States (KDMA) 32-10N 110-53W
Sep 26, 2020 - 10:58 PM EDT / 2020.09.27 0258 UTC
Wind: from the NW (320 degrees) at 6 MPH (5 KT):0
Visibility: 10 mile(s):0
Sky conditions: clear
Temperature: 87.8 F (31.0 C)
Dew Point: 39.0 F (3.9 C)
Relative Humidity: 17%
Pressure (altimeter): 29.92 in. Hg (1013 hPa)
Pressure tendency: 0.03 inches (0.9 hPa) higher than three hours ago
ob: KDMA 270258Z AUTO 32005KT 10SM CLR 31/04 A2992 RMK AO2 SLP087 T03100039 53009 FZRANO
cycle: 3

Station Type Date Time Source
KDMA TAF 2020/09/27 23:00 UTC NOAA

TAF
AMD KDMA 262338Z 2623/2804 32012G18KT 9999 FEW100 QNH2991INS
BECMG 2702/2703 VRB06KT 9999 SKC QNH2995INS
BECMG 2718/2719 33009KT 9999 SKC QNH2989INS
TEMPO 2719/2801 33012G18KT TX37/2623Z TN20/2712Z

Example: see airport list